sensor_id;sensor_type;location;lat;lon;timestamp;P1;durP1;ratioP1;P2;durP2;ratioP2
42988;SDS011;28622;43.716;20.668;2023-03-01T00:01:46;11.38;;;4.40;;
42988;SDS011;28622;43.716;20.668;2023-03-01T00:04:12;9.20;;;4.50;;
42988;SDS011;28622;43.716;20.668;2023-03-01T00:06:37;8.85;;;4.80;;
42988;SDS011;28622;43.716;20.668;2023-03-01T00:09:03;11.68;;;6.22;;
42988;SDS011;28622;43.716;20.668;2023-03-01T00:11:31;13.27;;;7.18;;
42988;SDS011;28622;43.716;20.668;2023-03-01T00:13:58;9.98;;;5.47;;
42988;SDS011;28622;43.716;20.668;2023-03-01T00:16:30;14.07;;;7.32;;
42988;SDS011;28622;43.716;20.668;2023-03-01T00:19:00;48.80;;;23.77;;
42988;SDS011;28622;43.716;20.668;2023-03-01T00:21:26;48.05;;;21.52;;
42988;SDS011;28622;43.716;20.668;2023-03-01T00:23:52;17.98;;;7.53;;
42988;SDS011;28622;43.716;20.668;2023-03-01T00:26:20;16.63;;;5.43;;
42988;SDS011;28622;43.716;20.668;2023-03-01T00:28:50;11.20;;;5.80;;
42988;SDS011;28622;43.716;20.668;2023-03-01T00:31:17;16.65;;;7.22;;
42988;SDS011;28622;43.716;20.668;2023-03-01T00:33:45;96.20;;;42.03;;
42988;SDS011;28622;43.716;20.668;2023-03-01T00:36:15;185.02;;;76.40;;
42988;SDS011;28622;43.716;20.668;2023-03-01T00:38:42;71.53;;;24.85;;
42988;SDS011;28622;43.716;20.668;2023-03-01T00:41:09;33.25;;;11.48;;
42988;SDS011;28622;43.716;20.668;2023-03-01T00:43:37;18.33;;;6.78;;
42988;SDS011;28622;43.716;20.668;2023-03-01T00:46:04;11.43;;;5.32;;
42988;SDS011;28622;43.716;20.668;2023-03-01T00:48:31;9.55;;;4.40;;
42988;SDS011;28622;43.716;20.668;2023-03-01T00:51:03;10.35;;;4.53;;
42988;SDS011;28622;43.716;20.668;2023-03-01T00:53:33;6.45;;;4.13;;
42988;SDS011;28622;43.716;20.668;2023-03-01T00:55:59;8.43;;;4.55;;
42988;SDS011;28622;43.716;20.668;2023-03-01T00:58:24;9.48;;;4.88;;
42988;SDS011;28622;43.716;20.668;2023-03-01T01:00:50;8.82;;;5.10;;
42988;SDS011;28622;43.716;20.668;2023-03-01T01:03:17;9.00;;;4.10;;
42988;SDS011;28622;43.716;20.668;2023-03-01T01:05:43;10.77;;;5.70;;
42988;SDS011;28622;43.716;20.668;2023-03-01T01:08:09;10.63;;;5.57;;
42988;SDS011;28622;43.716;20.668;2023-03-01T01:10:35;11.50;;;6.15;;
42988;SDS011;28622;43.716;20.668;2023-03-01T01:13:01;10.07;;;5.30;;
42988;SDS011;28622;43.716;20.668;2023-03-01T01:15:27;10.35;;;5.57;;
42988;SDS011;28622;43.716;20.668;2023-03-01T01:17:53;11.23;;;4.78;;
42988;SDS011;28622;43.716;20.668;2023-03-01T01:20:19;7.43;;;3.78;;
42988;SDS011;28622;43.716;20.668;2023-03-01T01:22:45;9.82;;;4.88;;
42988;SDS011;28622;43.716;20.668;2023-03-01T01:25:11;8.88;;;5.05;;
42988;SDS011;28622;43.716;20.668;2023-03-01T01:27:37;8.00;;;4.65;;
42988;SDS011;28622;43.716;20.668;2023-03-01T01:30:03;9.52;;;4.68;;
42988;SDS011;28622;43.716;20.668;2023-03-01T01:32:29;9.27;;;4.90;;
42988;SDS011;28622;43.716;20.668;2023-03-01T01:34:55;14.05;;;6.25;;
42988;SDS011;28622;43.716;20.668;2023-03-01T01:37:21;6.82;;;4.07;;
42988;SDS011;28622;43.716;20.668;2023-03-01T01:39:47;6.88;;;4.18;;
42988;SDS011;28622;43.716;20.668;2023-03-01T01:42:16;7.50;;;4.70;;
42988;SDS011;28622;43.716;20.668;2023-03-01T01:44:47;9.45;;;5.13;;
42988;SDS011;28622;43.716;20.668;2023-03-01T01:47:14;15.63;;;9.07;;
42988;SDS011;28622;43.716;20.668;2023-03-01T01:49:47;12.43;;;7.85;;
42988;SDS011;28622;43.716;20.668;2023-03-01T01:52:16;11.13;;;6.32;;
42988;SDS011;28622;43.716;20.668;2023-03-01T01:57:27;10.93;;;5.65;;
42988;SDS011;28622;43.716;20.668;2023-03-01T02:00:00;11.15;;;6.00;;
42988;SDS011;28622;43.716;20.668;2023-03-01T02:02:31;10.60;;;5.53;;
42988;SDS011;28622;43.716;20.668;2023-03-01T02:05:04;12.40;;;5.30;;
42988;SDS011;28622;43.716;20.668;2023-03-01T02:07:36;9.07;;;4.82;;
42988;SDS011;28622;43.716;20.668;2023-03-01T02:10:04;7.72;;;4.57;;
42988;SDS011;28622;43.716;20.668;2023-03-01T02:12:31;13.13;;;5.30;;
42988;SDS011;28622;43.716;20.668;2023-03-01T02:14:59;15.63;;;8.73;;
42988;SDS011;28622;43.716;20.668;2023-03-01T02:17:24;41.00;;;16.38;;
42988;SDS011;28622;43.716;20.668;2023-03-01T02:22:40;18.77;;;10.45;;
42988;SDS011;28622;43.716;20.668;2023-03-01T02:30:23;14.27;;;7.43;;
42988;SDS011;28622;43.716;20.668;2023-03-01T02:32:50;8.32;;;4.10;;
42988;SDS011;28622;43.716;20.668;2023-03-01T02:35:18;12.48;;;6.78;;
42988;SDS011;28622;43.716;20.668;2023-03-01T02:37:45;12.70;;;5.95;;
42988;SDS011;28622;43.716;20.668;2023-03-01T02:40:13;16.00;;;5.95;;
42988;SDS011;28622;43.716;20.668;2023-03-01T02:42:55;9.95;;;5.97;;
42988;SDS011;28622;43.716;20.668;2023-03-01T02:45:22;9.27;;;4.35;;
42988;SDS011;28622;43.716;20.668;2023-03-01T02:47:49;10.02;;;4.68;;
42988;SDS011;28622;43.716;20.668;2023-03-01T02:52:57;11.35;;;5.35;;
42988;SDS011;28622;43.716;20.668;2023-03-01T02:55:33;10.75;;;5.03;;
42988;SDS011;28622;43.716;20.668;2023-03-01T02:57:59;6.32;;;4.07;;
42988;SDS011;28622;43.716;20.668;2023-03-01T03:00:29;8.25;;;4.05;;
42988;SDS011;28622;43.716;20.668;2023-03-01T03:02:59;11.23;;;4.82;;
42988;SDS011;28622;43.716;20.668;2023-03-01T03:05:26;12.52;;;4.85;;
42988;SDS011;28622;43.716;20.668;2023-03-01T03:07:53;12.55;;;6.78;;
42988;SDS011;28622;43.716;20.668;2023-03-01T03:10:24;11.25;;;5.57;;
42988;SDS011;28622;43.716;20.668;2023-03-01T03:12:54;8.43;;;4.78;;
42988;SDS011;28622;43.716;20.668;2023-03-01T03:15:22;14.02;;;6.75;;
42988;SDS011;28622;43.716;20.668;2023-03-01T03:17:48;7.22;;;3.88;;
42988;SDS011;28622;43.716;20.668;2023-03-01T03:20:16;7.45;;;4.50;;
42988;SDS011;28622;43.716;20.668;2023-03-01T03:22:46;14.35;;;6.30;;
42988;SDS011;28622;43.716;20.668;2023-03-01T03:25:14;11.93;;;4.40;;
42988;SDS011;28622;43.716;20.668;2023-03-01T03:27:41;13.35;;;5.18;;
42988;SDS011;28622;43.716;20.668;2023-03-01T03:30:09;7.43;;;4.25;;
42988;SDS011;28622;43.716;20.668;2023-03-01T03:32:41;8.73;;;4.53;;
42988;SDS011;28622;43.716;20.668;2023-03-01T03:35:17;8.25;;;4.03;;
42988;SDS011;28622;43.716;20.668;2023-03-01T03:37:44;7.40;;;4.72;;
42988;SDS011;28622;43.716;20.668;2023-03-01T03:40:50;10.80;;;4.63;;
42988;SDS011;28622;43.716;20.668;2023-03-01T03:43:16;9.85;;;5.53;;
42988;SDS011;28622;43.716;20.668;2023-03-01T03:45:44;11.07;;;5.28;;
42988;SDS011;28622;43.716;20.668;2023-03-01T03:48:11;7.63;;;4.47;;
42988;SDS011;28622;43.716;20.668;2023-03-01T03:50:38;8.52;;;5.22;;
42988;SDS011;28622;43.716;20.668;2023-03-01T03:53:06;7.82;;;4.20;;
42988;SDS011;28622;43.716;20.668;2023-03-01T03:55:36;10.00;;;4.75;;
42988;SDS011;28622;43.716;20.668;2023-03-01T03:58:04;8.90;;;4.97;;
42988;SDS011;28622;43.716;20.668;2023-03-01T04:00:32;8.70;;;4.10;;
42988;SDS011;28622;43.716;20.668;2023-03-01T04:02:59;10.77;;;5.95;;
42988;SDS011;28622;43.716;20.668;2023-03-01T04:05:26;9.07;;;4.95;;
42988;SDS011;28622;43.716;20.668;2023-03-01T04:07:52;8.95;;;4.95;;
42988;SDS011;28622;43.716;20.668;2023-03-01T04:10:28;8.27;;;4.93;;
42988;SDS011;28622;43.716;20.668;2023-03-01T04:12:56;7.72;;;4.22;;
42988;SDS011;28622;43.716;20.668;2023-03-01T04:15:22;10.82;;;5.57;;
42988;SDS011;28622;43.716;20.668;2023-03-01T04:17:49;9.10;;;5.28;;
42988;SDS011;28622;43.716;20.668;2023-03-01T04:20:20;9.07;;;5.22;;
42988;SDS011;28622;43.716;20.668;2023-03-01T04:23:07;10.27;;;4.60;;
42988;SDS011;28622;43.716;20.668;2023-03-01T04:25:48;10.70;;;4.80;;
42988;SDS011;28622;43.716;20.668;2023-03-01T04:28:25;10.07;;;5.40;;
42988;SDS011;28622;43.716;20.668;2023-03-01T04:30:54;9.63;;;5.55;;
42988;SDS011;28622;43.716;20.668;2023-03-01T04:33:21;15.95;;;8.38;;
42988;SDS011;28622;43.716;20.668;2023-03-01T04:35:48;19.67;;;8.95;;
42988;SDS011;28622;43.716;20.668;2023-03-01T04:38:14;13.98;;;6.53;;
42988;SDS011;28622;43.716;20.668;2023-03-01T04:40:41;9.77;;;5.50;;
42988;SDS011;28622;43.716;20.668;2023-03-01T04:43:08;7.75;;;4.40;;
42988;SDS011;28622;43.716;20.668;2023-03-01T04:45:35;7.97;;;4.55;;
42988;SDS011;28622;43.716;20.668;2023-03-01T04:48:01;7.25;;;4.15;;
42988;SDS011;28622;43.716;20.668;2023-03-01T04:50:27;13.50;;;7.82;;
42988;SDS011;28622;43.716;20.668;2023-03-01T04:52:53;10.07;;;5.10;;
42988;SDS011;28622;43.716;20.668;2023-03-01T04:55:19;7.85;;;3.75;;
42988;SDS011;28622;43.716;20.668;2023-03-01T04:57:45;7.82;;;4.28;;
42988;SDS011;28622;43.716;20.668;2023-03-01T05:00:11;8.65;;;4.63;;
42988;SDS011;28622;43.716;20.668;2023-03-01T05:02:51;12.40;;;4.05;;
42988;SDS011;28622;43.716;20.668;2023-03-01T05:05:20;7.95;;;4.57;;
42988;SDS011;28622;43.716;20.668;2023-03-01T05:07:51;9.93;;;5.30;;
42988;SDS011;28622;43.716;20.668;2023-03-01T05:10:18;7.85;;;4.20;;
42988;SDS011;28622;43.716;20.668;2023-03-01T05:12:44;6.57;;;4.00;;
42988;SDS011;28622;43.716;20.668;2023-03-01T05:15:09;7.75;;;3.17;;
42988;SDS011;28622;43.716;20.668;2023-03-01T05:17:35;6.45;;;3.83;;
42988;SDS011;28622;43.716;20.668;2023-03-01T05:20:01;8.32;;;3.97;;
42988;SDS011;28622;43.716;20.668;2023-03-01T05:22:32;7.65;;;4.10;;
42988;SDS011;28622;43.716;20.668;2023-03-01T05:24:57;7.65;;;4.70;;
42988;SDS011;28622;43.716;20.668;2023-03-01T05:27:23;6.75;;;4.13;;
42988;SDS011;28622;43.716;20.668;2023-03-01T05:29:49;7.65;;;4.47;;
42988;SDS011;28622;43.716;20.668;2023-03-01T05:32:14;8.80;;;5.03;;
42988;SDS011;28622;43.716;20.668;2023-03-01T05:34:41;8.95;;;5.25;;
42988;SDS011;28622;43.716;20.668;2023-03-01T05:37:07;7.45;;;4.07;;
42988;SDS011;28622;43.716;20.668;2023-03-01T05:39:34;10.07;;;5.75;;
42988;SDS011;28622;43.716;20.668;2023-03-01T05:42:01;13.23;;;7.80;;
42988;SDS011;28622;43.716;20.668;2023-03-01T05:44:28;11.93;;;6.15;;
42988;SDS011;28622;43.716;20.668;2023-03-01T05:46:54;8.02;;;4.05;;
42988;SDS011;28622;43.716;20.668;2023-03-01T05:49:21;8.55;;;4.80;;
42988;SDS011;28622;43.716;20.668;2023-03-01T05:51:50;9.25;;;4.90;;
42988;SDS011;28622;43.716;20.668;2023-03-01T05:54:17;13.85;;;6.65;;
42988;SDS011;28622;43.716;20.668;2023-03-01T05:56:44;12.60;;;6.30;;
42988;SDS011;28622;43.716;20.668;2023-03-01T05:59:10;11.85;;;5.68;;
42988;SDS011;28622;43.716;20.668;2023-03-01T06:01:36;10.55;;;5.20;;
42988;SDS011;28622;43.716;20.668;2023-03-01T06:04:03;16.88;;;9.38;;
42988;SDS011;28622;43.716;20.668;2023-03-01T06:06:29;10.57;;;6.47;;
42988;SDS011;28622;43.716;20.668;2023-03-01T06:08:58;8.93;;;4.72;;
42988;SDS011;28622;43.716;20.668;2023-03-01T06:11:24;8.45;;;4.88;;
42988;SDS011;28622;43.716;20.668;2023-03-01T06:13:50;7.20;;;4.55;;
42988;SDS011;28622;43.716;20.668;2023-03-01T06:16:16;8.18;;;4.60;;
42988;SDS011;28622;43.716;20.668;2023-03-01T06:18:41;7.95;;;3.90;;
42988;SDS011;28622;43.716;20.668;2023-03-01T06:21:08;8.10;;;4.80;;
42988;SDS011;28622;43.716;20.668;2023-03-01T06:23:34;10.23;;;6.18;;
42988;SDS011;28622;43.716;20.668;2023-03-01T06:26:00;7.82;;;4.72;;
42988;SDS011;28622;43.716;20.668;2023-03-01T06:28:30;9.13;;;4.63;;
42988;SDS011;28622;43.716;20.668;2023-03-01T06:30:56;7.90;;;4.13;;
42988;SDS011;28622;43.716;20.668;2023-03-01T06:33:22;8.90;;;4.53;;
42988;SDS011;28622;43.716;20.668;2023-03-01T06:35:49;9.57;;;4.65;;
42988;SDS011;28622;43.716;20.668;2023-03-01T06:38:15;9.18;;;4.97;;
42988;SDS011;28622;43.716;20.668;2023-03-01T06:40:43;12.15;;;6.78;;
42988;SDS011;28622;43.716;20.668;2023-03-01T06:43:09;13.55;;;7.03;;
42988;SDS011;28622;43.716;20.668;2023-03-01T06:45:36;13.02;;;7.40;;
42988;SDS011;28622;43.716;20.668;2023-03-01T06:48:05;11.30;;;5.45;;
42988;SDS011;28622;43.716;20.668;2023-03-01T06:50:32;18.27;;;7.38;;
42988;SDS011;28622;43.716;20.668;2023-03-01T06:52:59;14.88;;;5.47;;
42988;SDS011;28622;43.716;20.668;2023-03-01T06:55:25;10.25;;;5.78;;
42988;SDS011;28622;43.716;20.668;2023-03-01T06:58:00;10.30;;;5.97;;
42988;SDS011;28622;43.716;20.668;2023-03-01T07:00:28;10.48;;;5.85;;
42988;SDS011;28622;43.716;20.668;2023-03-01T07:02:54;10.35;;;5.40;;
42988;SDS011;28622;43.716;20.668;2023-03-01T07:05:22;9.07;;;5.53;;
42988;SDS011;28622;43.716;20.668;2023-03-01T07:07:48;8.50;;;5.25;;
42988;SDS011;28622;43.716;20.668;2023-03-01T07:10:14;15.07;;;6.68;;
42988;SDS011;28622;43.716;20.668;2023-03-01T07:12:40;11.55;;;5.95;;
42988;SDS011;28622;43.716;20.668;2023-03-01T07:15:07;17.10;;;8.68;;
42988;SDS011;28622;43.716;20.668;2023-03-01T07:17:34;16.30;;;8.07;;
42988;SDS011;28622;43.716;20.668;2023-03-01T07:20:00;12.25;;;6.63;;
42988;SDS011;28622;43.716;20.668;2023-03-01T07:22:26;11.70;;;6.75;;
42988;SDS011;28622;43.716;20.668;2023-03-01T07:24:51;13.52;;;6.45;;
42988;SDS011;28622;43.716;20.668;2023-03-01T07:27:17;11.23;;;7.25;;
42988;SDS011;28622;43.716;20.668;2023-03-01T07:29:43;12.77;;;6.88;;
42988;SDS011;28622;43.716;20.668;2023-03-01T07:32:08;15.60;;;8.45;;
42988;SDS011;28622;43.716;20.668;2023-03-01T07:34:35;15.85;;;10.13;;
42988;SDS011;28622;43.716;20.668;2023-03-01T07:37:01;13.13;;;6.55;;
42988;SDS011;28622;43.716;20.668;2023-03-01T07:39:27;12.20;;;6.88;;
42988;SDS011;28622;43.716;20.668;2023-03-01T07:41:54;12.80;;;6.55;;
42988;SDS011;28622;43.716;20.668;2023-03-01T07:44:20;14.55;;;7.50;;
42988;SDS011;28622;43.716;20.668;2023-03-01T07:46:46;11.05;;;6.20;;
42988;SDS011;28622;43.716;20.668;2023-03-01T07:49:11;12.38;;;7.35;;
42988;SDS011;28622;43.716;20.668;2023-03-01T07:51:37;13.40;;;6.20;;
42988;SDS011;28622;43.716;20.668;2023-03-01T07:54:03;11.55;;;6.28;;
42988;SDS011;28622;43.716;20.668;2023-03-01T07:56:29;17.75;;;9.50;;
42988;SDS011;28622;43.716;20.668;2023-03-01T07:58:54;11.48;;;7.13;;
42988;SDS011;28622;43.716;20.668;2023-03-01T08:01:20;11.70;;;7.07;;
42988;SDS011;28622;43.716;20.668;2023-03-01T08:03:47;14.93;;;7.43;;
42988;SDS011;28622;43.716;20.668;2023-03-01T08:06:14;13.10;;;5.70;;
42988;SDS011;28622;43.716;20.668;2023-03-01T08:08:41;12.18;;;6.63;;
42988;SDS011;28622;43.716;20.668;2023-03-01T08:11:07;15.73;;;7.85;;
42988;SDS011;28622;43.716;20.668;2023-03-01T08:13:36;16.75;;;7.18;;
42988;SDS011;28622;43.716;20.668;2023-03-01T08:16:10;11.38;;;6.18;;
42988;SDS011;28622;43.716;20.668;2023-03-01T08:18:36;13.13;;;6.57;;
42988;SDS011;28622;43.716;20.668;2023-03-01T08:21:03;11.35;;;5.80;;
42988;SDS011;28622;43.716;20.668;2023-03-01T08:23:36;15.23;;;7.07;;
42988;SDS011;28622;43.716;20.668;2023-03-01T08:26:03;13.27;;;8.30;;
42988;SDS011;28622;43.716;20.668;2023-03-01T08:28:37;17.33;;;10.00;;
42988;SDS011;28622;43.716;20.668;2023-03-01T08:31:04;19.92;;;10.02;;
42988;SDS011;28622;43.716;20.668;2023-03-01T08:33:43;21.05;;;10.23;;
42988;SDS011;28622;43.716;20.668;2023-03-01T08:36:09;15.60;;;8.45;;
42988;SDS011;28622;43.716;20.668;2023-03-01T08:38:35;14.00;;;8.00;;
42988;SDS011;28622;43.716;20.668;2023-03-01T08:41:01;21.52;;;9.45;;
42988;SDS011;28622;43.716;20.668;2023-03-01T08:43:28;13.90;;;8.00;;
42988;SDS011;28622;43.716;20.668;2023-03-01T08:45:54;16.15;;;8.40;;
42988;SDS011;28622;43.716;20.668;2023-03-01T08:48:20;11.68;;;6.68;;
42988;SDS011;28622;43.716;20.668;2023-03-01T08:50:46;13.88;;;5.03;;
42988;SDS011;28622;43.716;20.668;2023-03-01T08:53:11;9.88;;;5.70;;
42988;SDS011;28622;43.716;20.668;2023-03-01T08:55:37;10.40;;;4.80;;
42988;SDS011;28622;43.716;20.668;2023-03-01T08:58:03;6.75;;;4.13;;
42988;SDS011;28622;43.716;20.668;2023-03-01T09:00:29;8.40;;;5.00;;
42988;SDS011;28622;43.716;20.668;2023-03-01T09:02:54;7.10;;;3.67;;
42988;SDS011;28622;43.716;20.668;2023-03-01T09:05:20;9.38;;;5.18;;
42988;SDS011;28622;43.716;20.668;2023-03-01T09:07:47;8.23;;;4.88;;
42988;SDS011;28622;43.716;20.668;2023-03-01T09:10:13;7.43;;;4.55;;
42988;SDS011;28622;43.716;20.668;2023-03-01T09:12:39;7.40;;;4.10;;
42988;SDS011;28622;43.716;20.668;2023-03-01T09:15:04;4.60;;;3.10;;
42988;SDS011;28622;43.716;20.668;2023-03-01T09:17:31;7.18;;;4.20;;
42988;SDS011;28622;43.716;20.668;2023-03-01T09:19:58;8.60;;;3.90;;
42988;SDS011;28622;43.716;20.668;2023-03-01T09:22:25;7.07;;;3.55;;
42988;SDS011;28622;43.716;20.668;2023-03-01T09:24:51;7.60;;;4.32;;
42988;SDS011;28622;43.716;20.668;2023-03-01T09:27:17;4.43;;;3.15;;
42988;SDS011;28622;43.716;20.668;2023-03-01T09:29:44;7.20;;;3.90;;
42988;SDS011;28622;43.716;20.668;2023-03-01T09:32:10;10.75;;;3.85;;
42988;SDS011;28622;43.716;20.668;2023-03-01T09:34:36;10.30;;;5.20;;
42988;SDS011;28622;43.716;20.668;2023-03-01T09:37:20;8.07;;;4.03;;
42988;SDS011;28622;43.716;20.668;2023-03-01T09:39:46;6.25;;;3.42;;
42988;SDS011;28622;43.716;20.668;2023-03-01T09:42:12;6.10;;;3.15;;
42988;SDS011;28622;43.716;20.668;2023-03-01T09:44:48;7.18;;;3.70;;
42988;SDS011;28622;43.716;20.668;2023-03-01T09:47:34;7.32;;;3.65;;
42988;SDS011;28622;43.716;20.668;2023-03-01T09:50:06;4.93;;;2.85;;
42988;SDS011;28622;43.716;20.668;2023-03-01T09:52:41;8.55;;;4.32;;
42988;SDS011;28622;43.716;20.668;2023-03-01T09:55:15;5.40;;;3.13;;
42988;SDS011;28622;43.716;20.668;2023-03-01T10:06:41;5.43;;;3.45;;
42988;SDS011;28622;43.716;20.668;2023-03-01T10:09:16;11.38;;;5.90;;
42988;SDS011;28622;43.716;20.668;2023-03-01T10:11:44;8.50;;;4.65;;
42988;SDS011;28622;43.716;20.668;2023-03-01T10:16:55;8.13;;;4.93;;
42988;SDS011;28622;43.716;20.668;2023-03-01T10:19:31;9.75;;;5.05;;
42988;SDS011;28622;43.716;20.668;2023-03-01T10:22:34;10.80;;;5.18;;
42988;SDS011;28622;43.716;20.668;2023-03-01T10:24:57;9.15;;;4.82;;
42988;SDS011;28622;43.716;20.668;2023-03-01T10:30:19;12.68;;;5.68;;
42988;SDS011;28622;43.716;20.668;2023-03-01T10:32:51;7.68;;;4.50;;
42988;SDS011;28622;43.716;20.668;2023-03-01T10:35:19;12.60;;;6.35;;
42988;SDS011;28622;43.716;20.668;2023-03-01T10:37:57;9.25;;;4.65;;
42988;SDS011;28622;43.716;20.668;2023-03-01T10:40:30;5.15;;;3.42;;
42988;SDS011;28622;43.716;20.668;2023-03-01T10:42:57;10.07;;;5.38;;
42988;SDS011;28622;43.716;20.668;2023-03-01T10:48:10;9.52;;;5.70;;
42988;SDS011;28622;43.716;20.668;2023-03-01T10:50:38;8.88;;;5.22;;
42988;SDS011;28622;43.716;20.668;2023-03-01T10:53:28;9.52;;;5.32;;
42988;SDS011;28622;43.716;20.668;2023-03-01T10:58:35;10.52;;;5.50;;
42988;SDS011;28622;43.716;20.668;2023-03-01T11:01:25;8.85;;;4.45;;
42988;SDS011;28622;43.716;20.668;2023-03-01T11:06:33;7.93;;;4.03;;
42988;SDS011;28622;43.716;20.668;2023-03-01T11:09:19;7.60;;;4.45;;
42988;SDS011;28622;43.716;20.668;2023-03-01T11:11:59;10.05;;;5.20;;
42988;SDS011;28622;43.716;20.668;2023-03-01T11:14:26;8.20;;;4.70;;
42988;SDS011;28622;43.716;20.668;2023-03-01T11:17:01;10.13;;;4.97;;
42988;SDS011;28622;43.716;20.668;2023-03-01T11:19:59;14.05;;;6.78;;
42988;SDS011;28622;43.716;20.668;2023-03-01T11:22:37;11.93;;;5.65;;
42988;SDS011;28622;43.716;20.668;2023-03-01T11:25:15;10.82;;;4.50;;
42988;SDS011;28622;43.716;20.668;2023-03-01T11:27:43;8.38;;;4.20;;
42988;SDS011;28622;43.716;20.668;2023-03-01T11:33:17;8.98;;;3.65;;
42988;SDS011;28622;43.716;20.668;2023-03-01T11:36:03;14.10;;;6.30;;
42988;SDS011;28622;43.716;20.668;2023-03-01T11:38:36;9.60;;;5.28;;
42988;SDS011;28622;43.716;20.668;2023-03-01T11:41:45;12.82;;;6.47;;
42988;SDS011;28622;43.716;20.668;2023-03-01T12:17:22;7.25;;;4.75;;
42988;SDS011;28622;43.716;20.668;2023-03-01T12:22:42;10.18;;;5.45;;
42988;SDS011;28622;43.716;20.668;2023-03-01T12:25:30;6.57;;;3.60;;
42988;SDS011;28622;43.716;20.668;2023-03-01T12:36:30;8.77;;;4.32;;
42988;SDS011;28622;43.716;20.668;2023-03-01T12:44:11;12.73;;;6.55;;
42988;SDS011;28622;43.716;20.668;2023-03-01T12:49:45;18.08;;;9.30;;
42988;SDS011;28622;43.716;20.668;2023-03-01T12:55:19;13.38;;;6.50;;
42988;SDS011;28622;43.716;20.668;2023-03-01T13:08:43;6.20;;;3.30;;
42988;SDS011;28622;43.716;20.668;2023-03-01T13:11:21;8.23;;;4.10;;
42988;SDS011;28622;43.716;20.668;2023-03-01T13:13:48;7.30;;;2.97;;
42988;SDS011;28622;43.716;20.668;2023-03-01T13:19:14;8.75;;;4.15;;
42988;SDS011;28622;43.716;20.668;2023-03-01T13:21:42;9.90;;;4.18;;
42988;SDS011;28622;43.716;20.668;2023-03-01T13:24:29;8.98;;;4.10;;
42988;SDS011;28622;43.716;20.668;2023-03-01T13:27:09;5.93;;;3.53;;
42988;SDS011;28622;43.716;20.668;2023-03-01T13:29:44;9.30;;;4.32;;
42988;SDS011;28622;43.716;20.668;2023-03-01T13:32:26;9.65;;;4.60;;
42988;SDS011;28622;43.716;20.668;2023-03-01T13:34:57;6.35;;;3.92;;
42988;SDS011;28622;43.716;20.668;2023-03-01T13:37:32;7.03;;;3.90;;
42988;SDS011;28622;43.716;20.668;2023-03-01T13:40:56;8.73;;;4.35;;
42988;SDS011;28622;43.716;20.668;2023-03-01T13:42:49;6.03;;;3.67;;
42988;SDS011;28622;43.716;20.668;2023-03-01T13:50:51;6.47;;;3.23;;
42988;SDS011;28622;43.716;20.668;2023-03-01T13:53:22;5.22;;;3.15;;
42988;SDS011;28622;43.716;20.668;2023-03-01T13:55:51;4.93;;;3.00;;
42988;SDS011;28622;43.716;20.668;2023-03-01T13:58:24;7.22;;;3.60;;
42988;SDS011;28622;43.716;20.668;2023-03-01T14:00:58;7.38;;;4.05;;
42988;SDS011;28622;43.716;20.668;2023-03-01T14:03:29;10.93;;;3.85;;
42988;SDS011;28622;43.716;20.668;2023-03-01T14:08:40;7.90;;;4.13;;
42988;SDS011;28622;43.716;20.668;2023-03-01T14:13:51;6.30;;;4.07;;
42988;SDS011;28622;43.716;20.668;2023-03-01T14:19:21;12.80;;;5.80;;
42988;SDS011;28622;43.716;20.668;2023-03-01T14:24:37;13.63;;;6.53;;
42988;SDS011;28622;43.716;20.668;2023-03-01T14:27:09;9.63;;;4.57;;
42988;SDS011;28622;43.716;20.668;2023-03-01T14:29:39;10.80;;;4.57;;
42988;SDS011;28622;43.716;20.668;2023-03-01T14:32:15;10.98;;;4.88;;
42988;SDS011;28622;43.716;20.668;2023-03-01T14:34:47;8.35;;;4.22;;
42988;SDS011;28622;43.716;20.668;2023-03-01T14:37:22;4.70;;;3.08;;
42988;SDS011;28622;43.716;20.668;2023-03-01T14:39:50;9.52;;;5.13;;
42988;SDS011;28622;43.716;20.668;2023-03-01T14:42:16;8.88;;;5.35;;
42988;SDS011;28622;43.716;20.668;2023-03-01T14:44:43;13.40;;;4.35;;
42988;SDS011;28622;43.716;20.668;2023-03-01T14:47:16;10.95;;;5.72;;
42988;SDS011;28622;43.716;20.668;2023-03-01T14:49:51;9.45;;;4.85;;
42988;SDS011;28622;43.716;20.668;2023-03-01T14:52:25;8.65;;;4.47;;
42988;SDS011;28622;43.716;20.668;2023-03-01T14:55:12;13.18;;;5.10;;
42988;SDS011;28622;43.716;20.668;2023-03-01T14:57:44;9.45;;;4.25;;
42988;SDS011;28622;43.716;20.668;2023-03-01T15:00:31;12.65;;;5.47;;
42988;SDS011;28622;43.716;20.668;2023-03-01T15:03:01;9.00;;;3.90;;
42988;SDS011;28622;43.716;20.668;2023-03-01T15:05:38;8.75;;;4.82;;
42988;SDS011;28622;43.716;20.668;2023-03-01T15:08:05;11.18;;;5.78;;
42988;SDS011;28622;43.716;20.668;2023-03-01T15:10:32;9.13;;;4.20;;
42988;SDS011;28622;43.716;20.668;2023-03-01T15:13:10;7.80;;;3.88;;
42988;SDS011;28622;43.716;20.668;2023-03-01T15:15:38;7.50;;;4.38;;
42988;SDS011;28622;43.716;20.668;2023-03-01T15:20:48;6.57;;;3.90;;
42988;SDS011;28622;43.716;20.668;2023-03-01T15:23:22;7.43;;;4.03;;
42988;SDS011;28622;43.716;20.668;2023-03-01T15:25:51;12.55;;;6.03;;
42988;SDS011;28622;43.716;20.668;2023-03-01T15:28:26;9.45;;;4.78;;
42988;SDS011;28622;43.716;20.668;2023-03-01T15:31:00;12.18;;;5.85;;
42988;SDS011;28622;43.716;20.668;2023-03-01T15:33:29;6.60;;;4.20;;
42988;SDS011;28622;43.716;20.668;2023-03-01T15:41:22;7.53;;;4.65;;
42988;SDS011;28622;43.716;20.668;2023-03-01T15:43:50;9.13;;;4.72;;
42988;SDS011;28622;43.716;20.668;2023-03-01T15:46:29;9.48;;;4.72;;
42988;SDS011;28622;43.716;20.668;2023-03-01T15:49:03;8.77;;;3.47;;
42988;SDS011;28622;43.716;20.668;2023-03-01T15:51:50;8.60;;;4.13;;
42988;SDS011;28622;43.716;20.668;2023-03-01T15:54:20;6.78;;;4.18;;
42988;SDS011;28622;43.716;20.668;2023-03-01T15:56:48;6.97;;;3.50;;
42988;SDS011;28622;43.716;20.668;2023-03-01T15:59:14;7.38;;;3.83;;
42988;SDS011;28622;43.716;20.668;2023-03-01T16:01:40;15.52;;;4.82;;
42988;SDS011;28622;43.716;20.668;2023-03-01T16:04:09;5.97;;;3.50;;
42988;SDS011;28622;43.716;20.668;2023-03-01T16:06:37;7.80;;;4.18;;
42988;SDS011;28622;43.716;20.668;2023-03-01T16:09:04;12.27;;;4.72;;
42988;SDS011;28622;43.716;20.668;2023-03-01T16:11:30;8.45;;;5.25;;
42988;SDS011;28622;43.716;20.668;2023-03-01T16:13:57;9.23;;;4.40;;
42988;SDS011;28622;43.716;20.668;2023-03-01T16:16:26;10.55;;;4.20;;
42988;SDS011;28622;43.716;20.668;2023-03-01T16:18:52;11.10;;;5.00;;
42988;SDS011;28622;43.716;20.668;2023-03-01T16:21:23;13.68;;;5.78;;
42988;SDS011;28622;43.716;20.668;2023-03-01T16:23:50;8.23;;;4.63;;
42988;SDS011;28622;43.716;20.668;2023-03-01T16:26:16;8.65;;;4.50;;
42988;SDS011;28622;43.716;20.668;2023-03-01T16:28:43;11.85;;;4.85;;
42988;SDS011;28622;43.716;20.668;2023-03-01T16:31:10;11.15;;;5.10;;
42988;SDS011;28622;43.716;20.668;2023-03-01T16:33:36;10.68;;;5.47;;
42988;SDS011;28622;43.716;20.668;2023-03-01T16:36:06;13.18;;;5.70;;
42988;SDS011;28622;43.716;20.668;2023-03-01T16:38:35;9.85;;;4.60;;
42988;SDS011;28622;43.716;20.668;2023-03-01T16:41:02;12.80;;;5.00;;
42988;SDS011;28622;43.716;20.668;2023-03-01T16:43:28;9.63;;;4.53;;
42988;SDS011;28622;43.716;20.668;2023-03-01T16:45:54;9.48;;;4.88;;
42988;SDS011;28622;43.716;20.668;2023-03-01T16:48:21;9.23;;;4.38;;
42988;SDS011;28622;43.716;20.668;2023-03-01T16:50:57;9.48;;;4.13;;
42988;SDS011;28622;43.716;20.668;2023-03-01T16:53:24;8.15;;;4.55;;
42988;SDS011;28622;43.716;20.668;2023-03-01T16:55:53;8.70;;;4.55;;